Time;durP1;ratioP1;P1;durP2;ratioP2;P2;SDS_P1;SDS_P2;PMS_P1;PMS_P2;Temp;Humidity;BMP_temperature;BMP_pressure;BME280_temperature;BME280_humidity;BME280_pressure;Samples;Min_cycle;Max_cycle;Signal;HPM_P1;HPM_P2
2022/10/20 00:04:02;;;;;;;10.00;7.40;;;;;;;1.34;75.87;100980.58;216132;1271;142204;-69
2022/10/20 00:09:09;;;;;;;10.80;6.40;;;;;;;1.29;76.25;100990.89;216306;1273;141496;-68
2022/10/20 00:14:14;;;;;;;18.40;8.30;;;;;;;1.29;76.30;101002.89;216283;1273;144245;-68
2022/10/20 00:19:18;;;;;;;13.80;9.50;;;;;;;1.25;75.97;101004.39;216199;1272;140368;-68
2022/10/20 00:24:22;;;;;;;7.90;7.00;;;;;;;1.24;76.36;101005.04;216277;1272;141115;-68
2022/10/20 00:29:27;;;;;;;8.70;6.70;;;;;;;1.20;76.41;101000.66;216489;1271;140259;-68
2022/10/20 00:34:32;;;;;;;8.80;5.10;;;;;;;1.04;76.16;101001.09;216267;1272;142832;-68
2022/10/20 00:39:36;;;;;;;9.50;6.00;;;;;;;0.87;76.05;100992.58;216088;1274;162209;-70
2022/10/20 00:44:53;;;;;;;9.80;6.50;;;;;;;0.83;76.70;100989.38;216138;1273;160717;-70
2022/10/20 00:50:04;;;;;;;8.10;5.70;;;;;;;0.92;76.86;100989.45;216561;1272;140842;-71
2022/10/20 00:55:15;;;;;;;11.90;6.70;;;;;;;0.95;76.93;100987.42;216855;1273;143447;-70
2022/10/20 01:00:19;;;;;;;14.80;6.60;;;;;;;0.86;76.78;100979.02;216450;1272;140604;-70
2022/10/20 01:05:24;;;;;;;11.10;6.50;;;;;;;0.80;77.03;100977.45;216236;1273;155165;-69
2022/10/20 01:10:40;;;;;;;14.50;7.90;;;;;;;0.77;76.79;100976.17;215948;1273;139796;-70
2022/10/20 01:15:55;;;;;;;15.20;8.40;;;;;;;0.76;77.14;100969.10;216314;1274;140452;-70
2022/10/20 01:21:27;;;;;;;12.70;7.40;;;;;;;0.79;77.34;100964.77;215384;1274;140771;-70
2022/10/20 01:26:50;;;;;;;8.20;6.00;;;;;;;0.77;76.97;100958.96;216249;1271;141285;-68
2022/10/20 01:32:06;;;;;;;9.90;6.60;;;;;;;0.73;77.07;100961.48;216182;1274;141517;-70
2022/10/20 01:37:20;;;;;;;11.90;7.40;;;;;;;0.72;77.18;100955.05;216537;1272;140174;-69
2022/10/20 01:42:48;;;;;;;9.30;6.50;;;;;;;0.68;77.30;100958.20;216279;1271;140284;-70
2022/10/20 01:47:53;;;;;;;13.30;7.80;;;;;;;0.58;77.09;100959.85;215402;1278;140348;-68
2022/10/20 01:52:58;;;;;;;13.20;6.60;;;;;;;0.55;77.33;100961.72;215661;1273;141018;-72
2022/10/20 01:58:15;;;;;;;13.00;7.30;;;;;;;0.58;77.20;100959.92;216288;1272;140239;-71
2022/10/20 02:03:28;;;;;;;10.30;7.10;;;;;;;0.53;76.90;100950.73;216186;1274;140143;-69
2022/10/20 02:08:48;;;;;;;9.20;6.50;;;;;;;0.45;77.20;100947.77;216790;1272;140581;-69
2022/10/20 02:13:56;;;;;;;14.60;7.00;;;;;;;0.34;77.44;100940.93;215682;1272;141405;-68
2022/10/20 02:19:00;;;;;;;;;;;;;;;0.25;77.19;100938.05;216053;1273;141317;-67
2022/10/20 02:24:08;;;;;;;13.80;9.10;;;;;;;0.20;77.65;100948.09;216992;1271;128190;-67
2022/10/20 02:29:22;;;;;;;8.60;5.50;;;;;;;0.32;77.86;100950.51;216391;1272;140610;-69
2022/10/20 02:34:30;;;;;;;13.20;7.20;;;;;;;0.40;77.99;100946.50;216267;1273;140412;-68
2022/10/20 02:39:33;;;;;;;8.20;7.40;;;;;;;0.38;77.94;100950.34;216328;1274;141867;-68
2022/10/20 02:44:38;;;;;;;12.90;7.60;;;;;;;0.26;77.75;100949.51;216404;1272;140697;-68
2022/10/20 02:49:42;;;;;;;10.40;6.90;;;;;;;0.17;77.57;100957.15;216614;1272;140985;-68
2022/10/20 02:54:46;;;;;;;11.30;8.10;;;;;;;0.22;78.05;100958.64;216360;1272;142346;-68
2022/10/20 02:59:50;;;;;;;11.90;7.70;;;;;;;0.26;78.20;100964.92;216111;1271;141251;-67
2022/10/20 03:04:54;;;;;;;13.40;6.80;;;;;;;0.26;78.02;100973.30;216670;1271;141452;-68
2022/10/20 03:09:59;;;;;;;10.20;6.70;;;;;;;0.19;77.81;100977.96;216957;1272;142405;-67
2022/10/20 03:15:04;;;;;;;7.80;5.80;;;;;;;0.11;77.58;100987.11;216362;1272;140568;-67
2022/10/20 03:20:08;;;;;;;14.40;6.40;;;;;;;0.04;77.92;100985.80;216315;1272;141041;-68
2022/10/20 03:25:13;;;;;;;7.80;5.50;;;;;;;0.01;77.50;100986.55;216160;1272;140062;-68
2022/10/20 03:30:18;;;;;;;12.20;6.40;;;;;;;-0.03;77.65;100983.60;216877;1273;139895;-69
2022/10/20 03:35:22;;;;;;;17.00;5.40;;;;;;;-0.05;77.79;100978.55;216329;1272;142173;-68
2022/10/20 03:40:26;;;;;;;14.00;7.70;;;;;;;-0.12;77.71;100978.98;216103;1273;141006;-69
2022/10/20 03:45:30;;;;;;;14.60;7.80;;;;;;;-0.18;78.03;100981.44;216296;1271;140657;-68
2022/10/20 03:50:33;;;;;;;10.30;7.80;;;;;;;-0.20;78.23;100975.12;216601;1271;139385;-68
2022/10/20 03:55:37;;;;;;;10.00;5.80;;;;;;;-0.17;78.29;100978.02;216324;1272;140055;-68
2022/10/20 04:00:41;;;;;;;11.40;7.00;;;;;;;-0.16;78.22;100977.92;216110;1272;141229;-69
2022/10/20 04:05:45;;;;;;;7.90;5.70;;;;;;;-0.21;77.94;100969.95;216080;1271;140325;-70
2022/10/20 04:10:49;;;;;;;17.40;10.10;;;;;;;-0.24;77.95;100962.25;216126;1271;141601;-69
2022/10/20 04:15:53;;;;;;;25.90;12.20;;;;;;;-0.30;78.11;100963.63;216144;1271;141584;-69
2022/10/20 04:21:01;;;;;;;15.50;10.10;;;;;;;-0.30;78.49;100962.05;216208;1271;141036;-66
2022/10/20 04:26:10;;;;;;;22.20;10.80;;;;;;;-0.35;78.42;100952.02;215983;1271;141840;-67
2022/10/20 04:31:16;;;;;;;14.80;8.30;;;;;;;-0.39;78.60;100949.55;216492;1271;142073;-67
2022/10/20 04:36:21;;;;;;;19.80;11.10;;;;;;;-0.36;78.54;100938.14;216222;1274;141806;-69
2022/10/20 04:41:25;;;;;;;18.10;10.70;;;;;;;-0.40;78.67;100936.53;216332;1273;141701;-68
2022/10/20 04:46:29;;;;;;;15.40;11.00;;;;;;;-0.35;79.00;100936.10;216145;1274;140679;-68
2022/10/20 04:51:32;;;;;;;17.10;10.90;;;;;;;-0.28;79.17;100940.06;216001;1272;142465;-70
2022/10/20 04:56:36;;;;;;;18.80;11.20;;;;;;;-0.30;78.93;100939.00;216181;1274;141008;-68
2022/10/20 05:01:40;;;;;;;26.30;15.70;;;;;;;-0.38;78.79;100934.80;216308;1274;140646;-67
2022/10/20 05:06:44;;;;;;;25.90;16.80;;;;;;;-0.43;78.59;100937.34;216044;1271;143223;-67
2022/10/20 05:11:48;;;;;;;22.60;14.20;;;;;;;-0.45;78.76;100936.81;216033;1274;141537;-68
2022/10/20 05:16:52;;;;;;;32.50;18.50;;;;;;;-0.44;78.95;100943.16;216253;1274;141040;-70
2022/10/20 05:21:57;;;;;;;22.70;17.30;;;;;;;-0.38;79.10;100943.67;216390;1273;140971;-68
2022/10/20 05:27:00;;;;;;;23.60;14.70;;;;;;;-0.34;79.32;100945.13;216444;1274;140479;-69
2022/10/20 05:32:04;;;;;;;18.30;11.40;;;;;;;-0.30;79.51;100950.35;216187;1273;140060;-68
2022/10/20 05:37:09;;;;;;;19.40;9.70;;;;;;;-0.25;79.90;100961.11;215920;1274;140727;-69
2022/10/20 05:42:12;;;;;;;18.50;10.20;;;;;;;-0.19;79.68;100965.63;216069;1274;141016;-67
2022/10/20 05:47:18;;;;;;;17.30;9.80;;;;;;;-0.17;79.39;100977.83;214711;1274;1097589;-68
2022/10/20 05:52:22;;;;;;;17.60;9.50;;;;;;;-0.11;79.34;100984.98;215043;1274;140558;-67
2022/10/20 05:57:26;;;;;;;31.20;11.40;;;;;;;-0.09;79.28;100994.21;215849;1274;140611;-68
2022/10/20 06:02:30;;;;;;;12.60;8.80;;;;;;;-0.03;79.35;100995.63;216109;1274;140300;-69
2022/10/20 06:07:38;;;;;;;21.40;12.80;;;;;;;0.05;79.36;100995.23;215975;1274;140209;-68
2022/10/20 06:12:42;;;;;;;25.10;15.00;;;;;;;0.23;79.97;100998.85;216186;1274;141957;-68
2022/10/20 06:17:46;;;;;;;22.60;13.00;;;;;;;0.44;79.55;100995.63;216254;1274;140685;-70
2022/10/20 06:22:50;;;;;;;21.50;16.70;;;;;;;0.57;79.45;101004.80;216013;1274;140851;-68
2022/10/20 06:27:54;;;;;;;27.70;19.30;;;;;;;0.72;79.79;101005.10;216092;1273;140617;-69
2022/10/20 06:32:59;;;;;;;33.10;14.60;;;;;;;0.89;79.81;101012.33;216089;1274;141542;-69
2022/10/20 06:38:03;;;;;;;29.40;13.40;;;;;;;1.03;80.25;101007.67;216119;1273;140457;-69
2022/10/20 06:43:07;;;;;;;26.20;14.40;;;;;;;1.22;79.87;101008.15;216204;1272;140869;-68
2022/10/20 06:48:11;;;;;;;28.60;16.00;;;;;;;1.89;80.01;101008.80;216281;1273;142300;-69
2022/10/20 06:53:15;;;;;;;23.20;15.40;;;;;;;3.12;79.95;101011.66;216208;1271;141592;-67
2022/10/20 06:58:20;;;;;;;29.50;15.00;;;;;;;4.49;79.09;101010.50;216345;1272;141044;-69
2022/10/20 07:03:24;;;;;;;26.90;15.70;;;;;;;5.72;77.57;101014.72;216276;1272;140434;-69
2022/10/20 07:08:31;;;;;;;25.40;15.20;;;;;;;6.73;76.81;101021.64;215888;1272;141244;-69
2022/10/20 07:13:37;;;;;;;21.40;13.20;;;;;;;7.44;75.35;101019.42;216284;1271;140792;-72
2022/10/20 07:18:42;;;;;;;16.60;13.00;;;;;;;7.92;74.95;101032.63;216304;1273;141805;-66
2022/10/20 07:23:55;;;;;;;18.40;12.30;;;;;;;8.35;74.28;101035.44;216124;1273;141832;-72
2022/10/20 07:29:00;;;;;;;15.50;11.60;;;;;;;8.54;73.61;101038.95;216208;1274;140387;-73
2022/10/20 07:34:07;;;;;;;17.50;12.30;;;;;;;8.67;73.37;101042.14;216102;1272;141041;-69
2022/10/20 07:39:29;;;;;;;18.00;11.90;;;;;;;8.74;72.97;101048.87;216091;1274;141697;-72
2022/10/20 07:44:33;;;;;;;18.60;11.60;;;;;;;8.52;72.27;101056.02;216044;1274;141600;-74
2022/10/20 07:49:38;;;;;;;29.30;19.90;;;;;;;8.32;72.97;101053.20;215754;1274;143021;-71
2022/10/20 07:54:47;;;;;;;24.50;15.20;;;;;;;8.46;73.53;101047.95;216293;1274;141074;-70
2022/10/20 07:59:52;;;;;;;12.70;9.10;;;;;;;8.59;73.64;101047.20;216209;1274;141112;-72
2022/10/20 08:04:55;;;;;;;12.60;9.60;;;;;;;8.61;73.74;101044.81;216077;1273;140467;-73
2022/10/20 08:09:59;;;;;;;13.20;8.00;;;;;;;8.70;74.39;101043.88;215982;1274;141453;-72
2022/10/20 08:15:03;;;;;;;11.20;8.20;;;;;;;8.68;73.50;101049.98;215854;1274;141579;-69
2022/10/20 08:20:07;;;;;;;14.90;9.40;;;;;;;8.63;73.78;101046.21;215820;1274;139636;-70
2022/10/20 08:25:15;;;;;;;15.50;10.20;;;;;;;8.82;74.39;101040.99;215951;1273;142100;-71
2022/10/20 08:30:18;;;;;;;14.80;10.20;;;;;;;9.16;74.61;101039.17;215914;1274;141343;-70
2022/10/20 08:35:27;;;;;;;12.90;8.40;;;;;;;9.41;74.29;101041.69;216164;1272;140653;-71
2022/10/20 08:40:42;;;;;;;13.10;10.30;;;;;;;9.65;74.28;101042.28;216072;1271;140741;-72
2022/10/20 08:45:46;;;;;;;12.50;7.50;;;;;;;9.85;73.80;101041.80;215704;1274;140591;-74
2022/10/20 08:50:52;;;;;;;7.20;4.70;;;;;;;10.01;73.55;101043.68;216127;1272;140317;-71
2022/10/20 08:55:57;;;;;;;9.00;5.80;;;;;;;10.23;73.26;101041.08;216010;1273;141204;-72
2022/10/20 09:01:17;;;;;;;6.50;5.20;;;;;;;10.43;73.01;101038.95;216323;1273;140440;-72
2022/10/20 09:06:27;;;;;;;7.40;4.10;;;;;;;10.70;72.87;101035.23;216229;1273;152066;-72
2022/10/20 09:11:36;;;;;;;8.70;4.70;;;;;;;11.00;71.98;101030.71;216195;1272;140117;-73
2022/10/20 09:16:42;;;;;;;4.30;2.80;;;;;;;11.06;71.32;101024.35;216118;1273;140663;-73
2022/10/20 09:22:05;;;;;;;10.80;9.50;;;;;;;11.28;70.85;101024.17;215933;1273;139404;-73
2022/10/20 09:27:21;;;;;;;13.40;9.70;;;;;;;11.46;70.24;101022.04;216139;1273;140313;-71
2022/10/20 09:32:35;;;;;;;4.90;3.60;;;;;;;11.68;69.58;101020.04;215878;1273;141354;-70
2022/10/20 09:38:01;;;;;;;2.70;2.50;;;;;;;11.78;69.04;101016.45;215933;1273;139358;-72
2022/10/20 09:43:10;;;;;;;7.00;5.00;;;;;;;12.08;68.69;101013.87;216085;1272;141486;-73
2022/10/20 09:48:23;;;;;;;5.60;3.00;;;;;;;12.26;67.56;101010.80;215993;1273;139674;-76
2022/10/20 09:53:36;;;;;;;5.00;2.60;;;;;;;12.35;66.50;101002.23;216103;1274;140876;-72
2022/10/20 09:58:48;;;;;;;4.00;3.70;;;;;;;12.69;67.15;101000.98;216092;1273;140394;-72
2022/10/20 10:03:58;;;;;;;6.50;3.40;;;;;;;13.00;66.04;100991.73;216062;1274;140844;-72
2022/10/20 10:09:21;;;;;;;2.70;2.30;;;;;;;13.04;65.21;100991.70;215961;1273;140623;-72
2022/10/20 10:14:26;;;;;;;3.10;2.90;;;;;;;12.90;64.86;100987.63;216032;1273;140942;-71
2022/10/20 10:19:32;;;;;;;2.20;1.80;;;;;;;13.16;64.66;100981.52;215953;1274;139740;-72
2022/10/20 10:24:40;;;;;;;1.80;1.50;;;;;;;13.21;63.35;100981.75;216341;1272;139407;-72
2022/10/20 10:29:44;;;;;;;;;;;;;;;13.19;62.99;100975.84;216162;1273;140123;-73
2022/10/20 10:35:03;;;;;;;3.40;2.90;;;;;;;13.39;63.45;100972.29;214092;1273;127091;-71
2022/10/20 10:40:17;;;;;;;2.30;2.00;;;;;;;13.95;63.22;100962.51;216012;1273;140961;-72
2022/10/20 10:45:43;;;;;;;4.30;1.30;;;;;;;14.05;61.92;100960.00;216089;1273;140279;-72
2022/10/20 10:50:59;;;;;;;2.00;1.80;;;;;;;14.13;60.96;100962.35;212736;1274;140671;-69
2022/10/20 10:56:28;;;;;;;2.20;1.80;;;;;;;13.99;60.58;100953.58;215333;1272;141546;-72
2022/10/20 11:02:08;;;;;;;1.80;1.40;;;;;;;14.18;60.99;100949.50;216253;1273;140557;-72
2022/10/20 11:07:37;;;;;;;2.40;2.20;;;;;;;14.22;60.22;100945.75;216240;1273;140753;-72
2022/10/20 11:12:42;;;;;;;2.90;2.60;;;;;;;13.40;58.93;100942.23;215020;1273;141289;-70
2022/10/20 11:18:27;;;;;;;3.20;2.40;;;;;;;12.72;59.68;100935.13;216275;1273;140586;-75
2022/10/20 11:23:56;;;;;;;2.90;2.50;;;;;;;12.40;60.51;100934.23;214025;1274;141936;-73
2022/10/20 11:29:05;;;;;;;5.10;2.10;;;;;;;12.51;61.06;100922.23;216048;1272;141313;-73
2022/10/20 11:34:20;;;;;;;2.00;1.70;;;;;;;12.81;60.21;100916.86;216003;1274;139395;-71
2022/10/20 11:39:39;;;;;;;2.50;2.00;;;;;;;12.48;59.75;100913.14;216102;1273;140106;-72
2022/10/20 11:44:46;;;;;;;2.60;2.10;;;;;;;12.07;59.60;100910.70;216116;1273;139746;-72
2022/10/20 11:49:51;;;;;;;2.70;1.90;;;;;;;11.77;59.76;100900.73;215826;1274;140792;-72
2022/10/20 11:54:59;;;;;;;3.00;1.80;;;;;;;11.52;60.19;100896.27;216139;1273;140265;-72
2022/10/20 12:00:03;;;;;;;;;;;;;;;11.38;60.55;100890.04;216054;1274;140906;-72
2022/10/20 12:05:42;;;;;;;2.00;1.60;;;;;;;11.19;60.69;100880.06;216751;1270;126394;-72
2022/10/20 12:11:17;;;;;;;2.20;1.70;;;;;;;11.40;61.03;100871.84;216217;1273;140042;-72
2022/10/20 12:16:53;;;;;;;1.20;1.00;;;;;;;11.73;60.35;100875.20;216082;1273;139780;-72
2022/10/20 12:22:00;;;;;;;1.50;1.40;;;;;;;11.72;60.51;100871.96;215383;1274;141144;-72
2022/10/20 12:27:16;;;;;;;2.00;1.80;;;;;;;11.50;60.15;100876.84;216258;1273;140592;-72
2022/10/20 12:32:33;;;;;;;2.40;1.30;;;;;;;11.13;60.12;100868.66;215614;1273;139988;-73
2022/10/20 12:37:39;;;;;;;17.80;1.80;;;;;;;10.98;60.61;100866.46;215335;1274;139725;-71
2022/10/20 12:42:53;;;;;;;2.50;1.80;;;;;;;11.14;61.01;100858.80;215761;1274;140083;-72
2022/10/20 12:48:01;;;;;;;1.90;1.20;;;;;;;11.46;60.89;100849.84;214593;1273;139736;-70
2022/10/20 12:53:13;;;;;;;2.10;2.00;;;;;;;11.96;60.70;100843.89;216136;1272;140349;-71
2022/10/20 12:58:17;;;;;;;3.00;2.30;;;;;;;12.32;60.03;100833.94;216239;1273;139706;-70
2022/10/20 13:03:48;;;;;;;3.60;2.50;;;;;;;12.27;59.24;100829.77;216310;1272;151841;-71
2022/10/20 13:09:20;;;;;;;2.50;1.60;;;;;;;12.28;59.14;100827.42;216154;1273;141064;-72
2022/10/20 13:14:49;;;;;;;1.90;1.80;;;;;;;12.32;58.84;100821.10;214173;1273;139307;-72
2022/10/20 13:20:24;;;;;;;2.60;1.80;;;;;;;12.26;58.51;100816.88;216012;1273;139653;-72
2022/10/20 13:25:34;;;;;;;3.60;2.20;;;;;;;12.05;58.07;100817.55;216234;1273;140169;-69
2022/10/20 13:31:14;;;;;;;5.90;2.70;;;;;;;11.88;58.25;100812.77;216156;1274;140862;-71
2022/10/20 13:36:58;;;;;;;2.70;2.20;;;;;;;11.96;58.57;100802.65;216288;1272;141139;-72
2022/10/20 13:42:10;;;;;;;3.20;2.10;;;;;;;12.12;58.48;100796.65;216107;1274;141751;-72
2022/10/20 13:47:30;;;;;;;3.30;3.00;;;;;;;12.08;57.99;100785.79;216031;1273;140373;-71
2022/10/20 13:52:50;;;;;;;2.50;1.80;;;;;;;12.01;57.87;100781.15;216292;1273;142116;-72
2022/10/20 13:58:13;;;;;;;2.80;1.90;;;;;;;11.74;57.56;100779.95;216185;1273;140143;-72
2022/10/20 14:03:18;;;;;;;2.50;1.60;;;;;;;11.56;57.52;100779.87;216021;1274;139421;-71
2022/10/20 14:08:22;;;;;;;3.20;2.00;;;;;;;11.47;57.55;100774.13;216167;1273;140171;-70
2022/10/20 14:13:29;;;;;;;2.20;2.00;;;;;;;11.51;57.83;100774.31;215848;1272;141309;-69
2022/10/20 14:18:38;;;;;;;3.90;2.00;;;;;;;11.48;57.61;100773.76;216166;1273;140445;-70
2022/10/20 14:23:44;;;;;;;2.10;1.90;;;;;;;11.33;57.71;100772.95;216131;1274;144081;-69
2022/10/20 14:28:51;;;;;;;2.90;2.30;;;;;;;11.28;58.00;100764.16;216040;1274;140802;-69
2022/10/20 14:33:55;;;;;;;2.70;2.10;;;;;;;11.16;58.11;100754.68;215322;1272;140723;-69
2022/10/20 14:39:00;;;;;;;6.50;2.70;;;;;;;10.98;57.81;100754.52;215888;1274;140335;-69
2022/10/20 14:44:07;;;;;;;4.00;2.20;;;;;;;10.69;57.98;100746.16;215645;1274;140859;-68
2022/10/20 14:49:28;;;;;;;3.10;2.40;;;;;;;10.59;58.32;100742.42;214911;1274;141577;-69
2022/10/20 14:54:38;;;;;;;;;;;;;;;10.44;58.43;100739.63;216032;1274;140428;-69
2022/10/20 14:59:55;;;;;;;5.20;2.70;;;;;;;10.20;58.92;100734.38;216659;1271;146321;-69
2022/10/20 15:05:38;;;;;;;4.20;2.40;;;;;;;10.04;59.40;100734.18;215979;1273;140395;-69
2022/10/20 15:10:43;;;;;;;2.60;2.00;;;;;;;9.93;59.91;100736.44;215970;1272;141314;-69
2022/10/20 15:15:47;;;;;;;3.60;3.00;;;;;;;9.75;60.05;100737.23;215377;1271;140113;-68
2022/10/20 15:20:52;;;;;;;5.00;2.40;;;;;;;9.58;60.68;100730.26;216113;1273;140439;-72
2022/10/20 15:26:04;;;;;;;3.40;3.10;;;;;;;9.44;61.11;100723.16;215723;1274;140486;-71
2022/10/20 15:31:18;;;;;;;5.40;2.70;;;;;;;9.26;61.51;100720.59;215725;1271;140621;-69
2022/10/20 15:36:27;;;;;;;7.40;3.00;;;;;;;9.02;61.62;100717.55;215513;1273;140035;-70
2022/10/20 15:41:35;;;;;;;4.30;1.80;;;;;;;8.74;62.01;100709.09;215797;1274;140355;-73
2022/10/20 15:46:43;;;;;;;3.00;2.80;;;;;;;8.46;62.50;100707.52;215891;1274;141512;-74
2022/10/20 15:51:49;;;;;;;4.00;3.30;;;;;;;8.15;62.58;100704.48;215953;1273;140575;-73
2022/10/20 15:56:52;;;;;;;4.80;2.90;;;;;;;7.88;62.92;100706.66;215869;1273;139826;-72
2022/10/20 16:01:55;;;;;;;4.00;3.20;;;;;;;7.71;63.58;100701.83;216048;1274;140044;-71
2022/10/20 16:06:58;;;;;;;3.40;2.70;;;;;;;7.52;63.80;100703.84;216237;1272;141165;-74
2022/10/20 16:12:05;;;;;;;9.10;3.90;;;;;;;7.35;64.29;100712.10;216355;1271;140328;-73
2022/10/20 16:35:11;;;;;;;5.80;4.30;;;;;;;5.90;66.21;100698.52;212079;1320;657766;-71
2022/10/20 16:40:15;;;;;;;8.40;6.00;;;;;;;5.75;66.79;100701.52;213861;1283;139720;-70
2022/10/20 16:45:20;;;;;;;7.60;5.90;;;;;;;5.71;67.03;100708.33;213457;1282;429905;-71
2022/10/20 16:50:27;;;;;;;8.30;5.20;;;;;;;5.71;67.08;100711.59;214260;1281;140072;-69
2022/10/20 16:55:31;;;;;;;6.50;5.10;;;;;;;5.71;67.39;100710.64;214286;1282;140391;-69
2022/10/20 17:00:36;;;;;;;5.40;4.70;;;;;;;5.61;67.44;100713.32;214344;1282;139449;-69
2022/10/20 17:05:40;;;;;;;5.50;4.80;;;;;;;5.50;67.26;100715.73;214092;1284;138601;-70
2022/10/20 17:10:53;;;;;;;10.60;6.50;;;;;;;5.34;67.30;100712.66;214245;1282;140562;-70
2022/10/20 17:16:02;;;;;;;5.90;5.20;;;;;;;5.18;67.62;100715.38;214406;1282;139906;-69
2022/10/20 17:21:07;;;;;;;8.60;7.50;;;;;;;5.04;67.54;100716.59;212409;1282;139305;-71
2022/10/20 17:26:18;;;;;;;9.30;6.50;;;;;;;4.94;67.88;100726.19;212064;1282;139776;-68
2022/10/20 17:31:22;;;;;;;10.10;8.00;;;;;;;4.87;67.86;100724.56;214015;1281;139593;-69
2022/10/20 17:36:28;;;;;;;8.60;6.30;;;;;;;4.74;67.98;100717.95;213675;1282;140139;-70
2022/10/20 17:41:34;;;;;;;11.30;8.30;;;;;;;4.46;67.84;100718.77;212205;1281;140097;-68
2022/10/20 17:46:42;;;;;;;16.30;9.50;;;;;;;4.27;68.44;100718.77;214123;1282;140461;-69
2022/10/20 17:51:46;;;;;;;;;;;;;;;4.18;68.86;100716.09;214118;1282;139325;-68
2022/10/20 17:56:51;;;;;;;29.00;15.50;;;;;;;4.01;68.83;100712.38;214729;1281;126048;-69
2022/10/20 18:01:55;;;;;;;29.50;18.50;;;;;;;3.86;68.82;100699.95;214066;1281;140440;-68
2022/10/20 18:06:59;;;;;;;21.20;14.70;;;;;;;3.83;69.49;100692.36;214198;1281;140152;-68
2022/10/20 18:12:04;;;;;;;22.70;15.50;;;;;;;3.87;69.67;100686.66;214079;1282;140285;-69
2022/10/20 18:17:11;;;;;;;30.20;17.30;;;;;;;3.78;69.55;100686.20;214021;1282;142159;-68
2022/10/20 18:22:16;;;;;;;42.40;27.20;;;;;;;3.68;69.70;100684.98;214103;1281;138934;-68
2022/10/20 18:27:21;;;;;;;47.20;30.00;;;;;;;3.66;70.21;100680.16;213969;1282;139981;-68
2022/10/20 18:32:27;;;;;;;55.40;30.30;;;;;;;3.62;70.10;100679.42;214190;1282;141186;-68
2022/10/20 18:37:31;;;;;;;49.50;27.90;;;;;;;3.56;70.07;100677.44;213991;1282;141035;-68
2022/10/20 18:42:35;;;;;;;46.30;26.00;;;;;;;3.47;70.07;100669.27;214394;1282;140512;-67
2022/10/20 18:47:40;;;;;;;34.40;22.30;;;;;;;3.32;70.24;100659.64;214518;1281;139530;-68
2022/10/20 18:52:44;;;;;;;49.90;29.70;;;;;;;3.25;70.46;100656.70;214273;1280;140452;-68
2022/10/20 18:57:48;;;;;;;74.00;38.20;;;;;;;3.22;70.56;100657.75;214356;1282;139798;-68
2022/10/20 19:02:53;;;;;;;85.90;39.40;;;;;;;3.23;70.89;100652.39;214064;1282;139445;-68
2022/10/20 19:08:04;;;;;;;54.60;32.10;;;;;;;3.25;71.16;100646.00;212992;1282;140184;-67
2022/10/20 19:13:09;;;;;;;54.40;34.70;;;;;;;3.27;70.89;100643.49;213273;1282;140266;-68
2022/10/20 19:18:14;;;;;;;63.20;32.80;;;;;;;3.25;71.52;100635.78;214217;1282;140820;-68
2022/10/20 19:23:18;;;;;;;55.80;33.20;;;;;;;3.22;71.44;100636.84;214134;1282;139094;-70
2022/10/20 19:28:24;;;;;;;52.30;32.70;;;;;;;3.16;71.32;100643.42;213495;1282;140484;-68
2022/10/20 19:33:28;;;;;;;49.50;29.30;;;;;;;3.21;72.22;100640.09;214206;1282;139974;-69
2022/10/20 19:38:32;;;;;;;49.30;30.00;;;;;;;3.21;71.84;100633.20;214229;1282;140431;-71
2022/10/20 19:43:37;;;;;;;50.70;31.60;;;;;;;3.13;71.67;100633.56;213554;1282;139832;-71
2022/10/20 19:48:42;;;;;;;55.30;32.20;;;;;;;3.03;71.51;100633.05;213885;1282;139348;-67
2022/10/20 19:53:48;;;;;;;43.80;30.40;;;;;;;2.89;71.66;100632.18;213768;1282;139083;-66
2022/10/20 19:58:52;;;;;;;39.10;24.90;;;;;;;2.70;71.91;100617.45;213999;1282;139108;-68
2022/10/20 20:03:58;;;;;;;23.90;19.20;;;;;;;2.54;71.73;100611.33;213112;1282;139871;-68
2022/10/20 20:09:06;;;;;;;20.60;14.20;;;;;;;2.51;72.08;100603.55;214012;1282;140555;-71
2022/10/20 20:14:19;;;;;;;27.70;14.60;;;;;;;2.53;72.63;100602.23;213950;1282;246866;-73
2022/10/20 20:19:23;;;;;;;20.70;13.30;;;;;;;2.64;73.11;100603.52;213917;1282;139568;-70
2022/10/20 20:24:28;;;;;;;18.90;12.00;;;;;;;2.77;73.45;100591.13;214394;1282;139600;-74
2022/10/20 20:29:33;;;;;;;26.00;11.30;;;;;;;2.89;74.15;100589.95;214266;1282;139708;-71
2022/10/20 20:34:37;;;;;;;22.60;13.40;;;;;;;3.00;74.23;100589.98;214103;1282;141574;-70
2022/10/20 20:39:41;;;;;;;16.60;9.50;;;;;;;3.07;74.57;100583.84;214268;1282;140150;-70
2022/10/20 20:44:45;;;;;;;26.10;13.30;;;;;;;3.13;75.19;100580.91;214091;1282;140954;-70
2022/10/20 20:49:49;;;;;;;18.10;13.10;;;;;;;3.17;75.00;100576.07;212297;1282;142354;-74
2022/10/20 20:54:54;;;;;;;16.60;10.80;;;;;;;3.17;75.04;100566.82;214135;1282;140032;-72
2022/10/20 20:59:58;;;;;;;23.30;11.60;;;;;;;3.20;75.27;100563.69;214051;1282;141200;-71
2022/10/20 21:05:02;;;;;;;22.20;12.60;;;;;;;3.27;75.10;100564.28;213417;1282;140498;-71
2022/10/20 21:10:06;;;;;;;26.10;14.00;;;;;;;3.27;75.24;100555.89;214213;1282;150822;-70
2022/10/20 21:15:09;;;;;;;24.40;13.60;;;;;;;3.26;75.19;100551.23;214388;1282;140644;-70
2022/10/20 21:20:13;;;;;;;22.60;12.90;;;;;;;3.25;75.24;100539.21;214382;1282;140383;-72
2022/10/20 21:25:17;;;;;;;21.20;11.10;;;;;;;3.22;75.29;100525.33;213497;1282;141805;-67
2022/10/20 21:30:20;;;;;;;19.60;11.40;;;;;;;3.21;75.15;100515.02;213343;1282;139939;-68
2022/10/20 21:35:24;;;;;;;19.40;11.40;;;;;;;3.21;75.51;100515.37;214219;1282;140271;-67
2022/10/20 21:40:28;;;;;;;18.00;11.30;;;;;;;3.21;75.40;100520.15;214318;1282;140102;-69
2022/10/20 21:45:32;;;;;;;15.90;10.00;;;;;;;3.22;75.67;100519.30;214104;1282;140276;-71
2022/10/20 21:50:36;;;;;;;19.00;10.90;;;;;;;3.24;75.66;100531.41;214257;1282;139414;-68
2022/10/20 21:55:41;;;;;;;18.80;11.10;;;;;;;3.22;75.70;100524.99;214176;1281;139958;-68
2022/10/20 22:00:46;;;;;;;16.30;9.80;;;;;;;3.19;75.32;100520.05;214401;1282;140330;-68
2022/10/20 22:05:51;;;;;;;13.90;7.70;;;;;;;3.12;75.53;100516.02;214088;1282;140550;-67
2022/10/20 22:11:01;;;;;;;18.60;10.70;;;;;;;3.07;75.48;100509.20;214058;1282;141156;-67
2022/10/20 22:16:06;;;;;;;15.20;9.80;;;;;;;3.04;75.64;100500.41;214135;1281;140145;-69
2022/10/20 22:21:13;;;;;;;14.10;10.10;;;;;;;3.00;75.67;100499.39;214065;1282;140399;-68
2022/10/20 22:26:17;;;;;;;17.60;10.50;;;;;;;2.95;75.79;100496.95;214223;1282;139858;-66
2022/10/20 22:31:22;;;;;;;20.00;10.10;;;;;;;2.90;75.69;100492.09;214140;1282;142164;-65
2022/10/20 22:36:27;;;;;;;18.70;11.00;;;;;;;2.88;75.70;100483.53;214283;1282;139728;-69
2022/10/20 22:41:31;;;;;;;19.50;10.30;;;;;;;2.85;75.71;100483.16;213987;1282;139649;-71
2022/10/20 22:46:36;;;;;;;20.20;10.60;;;;;;;2.84;75.80;100481.65;214170;1282;140811;-67
2022/10/20 22:51:40;;;;;;;13.00;8.80;;;;;;;2.86;75.72;100479.51;214065;1282;139991;-65
2022/10/20 22:56:44;;;;;;;16.70;9.90;;;;;;;2.86;75.77;100484.81;214233;1282;140481;-75
2022/10/20 23:01:48;;;;;;;22.20;11.40;;;;;;;2.87;75.63;100482.48;214192;1282;141078;-72
2022/10/20 23:06:53;;;;;;;15.40;8.90;;;;;;;2.86;75.96;100485.38;213346;1282;142224;-69
2022/10/20 23:11:57;;;;;;;17.80;11.30;;;;;;;2.84;75.74;100486.06;214144;1282;139425;-66
2022/10/20 23:17:02;;;;;;;20.30;11.20;;;;;;;2.84;75.99;100494.30;214229;1282;140616;-70
2022/10/20 23:22:07;;;;;;;22.40;10.50;;;;;;;2.83;76.00;100484.45;213809;1282;141944;-66
2022/10/20 23:27:11;;;;;;;15.60;11.10;;;;;;;2.79;76.23;100485.17;213477;1282;141334;-66
2022/10/20 23:32:15;;;;;;;15.30;9.30;;;;;;;2.75;76.27;100479.20;213706;1282;140594;-75
2022/10/20 23:37:19;;;;;;;19.20;10.80;;;;;;;2.68;76.55;100477.99;214094;1282;140247;-72